createdAt,value
2023-02-16T00:02:57.572Z,59.50
2023-02-16T00:06:21.688Z,59.50
2023-02-16T00:09:45.479Z,59.40
2023-02-16T00:13:42.718Z,59.30
2023-02-16T00:17:12.288Z,59.60
2023-02-16T00:20:36.662Z,59.40
2023-02-16T00:24:00.445Z,59.30
2023-02-16T00:27:24.062Z,59.40
2023-02-16T00:30:50.199Z,59.70
2023-02-16T00:34:30.704Z,59.60
2023-02-16T00:37:54.329Z,59.80
2023-02-16T00:41:39.045Z,59.50
2023-02-16T00:45:03.513Z,59.70
2023-02-16T00:48:27.471Z,61.80
2023-02-16T00:51:53.569Z,59.60
2023-02-16T00:55:19.839Z,59.80
2023-02-16T00:58:43.703Z,59.70
2023-02-16T01:02:07.504Z,59.70
2023-02-16T01:05:33.470Z,59.70
2023-02-16T01:09:31.840Z,59.80
2023-02-16T01:12:55.749Z,59.70
2023-02-16T01:16:23.881Z,59.60
2023-02-16T01:19:49.043Z,60.00
2023-02-16T01:23:15.287Z,59.80
2023-02-16T01:26:47.555Z,60.00
2023-02-16T01:30:18.304Z,60.30
2023-02-16T01:33:43.366Z,60.10
2023-02-16T01:37:07.224Z,60.20
2023-02-16T01:40:43.464Z,60.00
2023-02-16T01:44:16.066Z,60.10
2023-02-16T01:47:47.696Z,60.10
2023-02-16T01:51:21.362Z,60.20
2023-02-16T01:54:53.679Z,60.20
2023-02-16T01:58:32.875Z,62.60
2023-02-16T02:02:03.201Z,60.10
2023-02-16T02:05:37.814Z,60.20
2023-02-16T02:09:09.379Z,60.20
2023-02-16T02:12:44.137Z,60.50
2023-02-16T02:16:09.774Z,60.10
2023-02-16T02:19:51.341Z,60.10
2023-02-16T02:23:41.221Z,60.30
2023-02-16T02:27:23.750Z,60.30
2023-02-16T02:31:01.472Z,60.40
2023-02-16T02:34:45.599Z,60.30
2023-02-16T02:38:18.208Z,60.40
2023-02-16T02:42:05.776Z,60.20
2023-02-16T02:45:50.736Z,60.10
2023-02-16T02:49:14.505Z,60.10
2023-02-16T02:52:40.299Z,60.00
2023-02-16T02:56:25.887Z,60.00
2023-02-16T03:00:14.921Z,60.10
2023-02-16T03:03:47.855Z,60.00
2023-02-16T03:07:13.557Z,60.00
2023-02-16T03:10:56.402Z,60.00
2023-02-16T03:14:27.732Z,60.00
2023-02-16T03:18:13.589Z,60.00
2023-02-16T03:21:56.619Z,60.20
2023-02-16T03:25:40.636Z,60.00
2023-02-16T03:29:22.703Z,60.10
2023-02-16T03:32:47.506Z,60.30
2023-02-16T03:36:11.817Z,60.10
2023-02-16T03:39:57.598Z,60.00
2023-02-16T03:43:26.082Z,60.20
2023-02-16T03:46:50.515Z,60.40
2023-02-16T03:50:15.048Z,60.40
2023-02-16T03:53:38.829Z,60.50
2023-02-16T03:57:04.027Z,60.50
2023-02-16T04:00:27.883Z,60.70
2023-02-16T04:03:51.655Z,60.70
2023-02-16T04:07:15.353Z,60.70
2023-02-16T04:10:40.031Z,60.60
2023-02-16T04:14:05.499Z,60.70
2023-02-16T04:17:29.194Z,60.60
2023-02-16T04:20:54.041Z,60.60
2023-02-16T04:24:18.028Z,60.60
2023-02-16T04:27:41.905Z,60.80
2023-02-16T04:31:07.547Z,60.80
2023-02-16T04:34:31.690Z,60.70
2023-02-16T04:37:55.357Z,60.70
2023-02-16T04:41:19.035Z,60.70
2023-02-16T04:44:42.819Z,60.60
2023-02-16T04:48:08.148Z,60.60
2023-02-16T04:51:31.692Z,60.60
2023-02-16T04:54:55.292Z,60.40
2023-02-16T04:58:19.373Z,60.40
2023-02-16T05:01:44.676Z,60.40
2023-02-16T05:05:10.321Z,60.50
2023-02-16T05:08:34.466Z,60.40
2023-02-16T05:12:15.959Z,60.30
2023-02-16T05:15:40.204Z,60.30
2023-02-16T05:19:04.071Z,61.30
2023-02-16T05:22:32.370Z,60.50
2023-02-16T05:25:56.509Z,60.60
2023-02-16T05:29:20.783Z,60.50
2023-02-16T05:32:44.532Z,62.00
2023-02-16T05:36:09.723Z,60.40
2023-02-16T05:39:35.084Z,60.60
2023-02-16T05:42:58.747Z,60.60
2023-02-16T05:46:24.907Z,60.30
2023-02-16T05:49:48.966Z,60.60
2023-02-16T05:53:12.611Z,60.60
2023-02-16T05:56:38.116Z,60.40
2023-02-16T06:00:02.015Z,61.20
2023-02-16T06:03:28.607Z,60.80
2023-02-16T06:06:52.566Z,60.60
2023-02-16T06:10:16.319Z,60.60
2023-02-16T06:13:41.817Z,61.40
2023-02-16T06:17:05.317Z,60.80
2023-02-16T06:20:29.029Z,60.70
2023-02-16T06:23:53.095Z,61.00
2023-02-16T06:27:16.696Z,60.70
2023-02-16T06:30:42.602Z,60.70
2023-02-16T06:34:06.846Z,60.80
2023-02-16T06:37:30.311Z,60.90
2023-02-16T06:40:54.532Z,60.90
2023-02-16T06:44:18.538Z,60.90
2023-02-16T06:47:43.368Z,61.00
2023-02-16T06:51:07.329Z,60.80
2023-02-16T06:54:31.501Z,60.90
2023-02-16T06:57:55.220Z,61.20
2023-02-16T07:01:23.624Z,61.30
2023-02-16T07:04:48.975Z,61.30
2023-02-16T07:08:12.718Z,61.20
2023-02-16T07:11:36.485Z,61.30
2023-02-16T07:15:00.283Z,61.30
2023-02-16T07:18:23.956Z,61.50
2023-02-16T07:21:49.193Z,61.80
2023-02-16T07:25:12.747Z,62.30
2023-02-16T07:28:36.641Z,61.90
2023-02-16T07:32:00.375Z,62.00
2023-02-16T07:35:24.087Z,62.00
2023-02-16T07:38:49.059Z,62.00
2023-02-16T07:42:12.622Z,62.10
2023-02-16T07:45:40.316Z,62.30
2023-02-16T07:49:04.022Z,62.40
2023-02-16T07:52:31.191Z,62.50
2023-02-16T07:55:56.624Z,62.70
2023-02-16T07:59:20.210Z,62.70
2023-02-16T08:02:43.852Z,62.70
2023-02-16T08:06:09.262Z,62.80
2023-02-16T08:09:34.118Z,63.10
2023-02-16T08:12:59.058Z,62.80
2023-02-16T08:16:26.053Z,62.90
2023-02-16T08:19:50.631Z,63.10
2023-02-16T08:23:14.157Z,63.00
2023-02-16T08:26:41.167Z,62.80
2023-02-16T08:30:12.718Z,63.40
2023-02-16T08:33:36.686Z,65.70
2023-02-16T08:37:00.343Z,70.10
2023-02-16T08:40:24.841Z,73.50
2023-02-16T08:43:49.227Z,73.00
2023-02-16T08:47:16.983Z,70.20
2023-02-16T08:50:47.480Z,67.70
2023-02-16T08:54:16.738Z,65.90
2023-02-16T08:57:40.303Z,65.30
2023-02-16T09:01:08.189Z,65.50
2023-02-16T09:04:33.458Z,65.40
2023-02-16T09:07:57.536Z,64.50
2023-02-16T09:11:22.702Z,63.80
2023-02-16T09:14:46.744Z,63.40
2023-02-16T09:18:10.516Z,62.90
2023-02-16T09:21:35.381Z,62.60
2023-02-16T09:24:59.540Z,62.40
2023-02-16T09:28:23.056Z,62.50
2023-02-16T09:31:47.649Z,62.50
2023-02-16T09:35:11.113Z,62.60
2023-02-16T09:38:36.721Z,62.50
2023-02-16T09:42:20.663Z,63.20
2023-02-16T09:45:51.217Z,62.70
2023-02-16T09:49:25.848Z,62.90
2023-02-16T09:52:56.751Z,63.50
2023-02-16T09:56:33.222Z,63.10
2023-02-16T10:00:08.629Z,63.20
2023-02-16T10:03:55.135Z,63.40
2023-02-16T10:07:33.418Z,63.70
2023-02-16T10:11:28.450Z,63.70
2023-02-16T10:15:01.411Z,63.80
2023-02-16T10:18:33.417Z,65.40
2023-02-16T10:22:04.469Z,70.50
2023-02-16T10:25:42.787Z,74.50
2023-02-16T10:29:14.217Z,78.30
2023-02-16T10:32:56.184Z,80.30
2023-02-16T10:36:36.655Z,81.00
2023-02-16T10:40:32.298Z,80.20
2023-02-16T10:44:04.417Z,78.80
2023-02-16T10:47:36.728Z,77.70
2023-02-16T10:51:07.189Z,75.00
2023-02-16T10:54:33.495Z,73.10
2023-02-16T10:58:02.814Z,72.00
2023-02-16T11:01:39.498Z,69.70
2023-02-16T11:05:06.442Z,67.40
2023-02-16T11:08:50.186Z,67.70
2023-02-16T11:12:26.866Z,64.40
2023-02-16T11:15:55.988Z,64.80
2023-02-16T11:19:24.321Z,64.30
2023-02-16T11:22:48.430Z,64.00
2023-02-16T11:26:26.837Z,63.30
2023-02-16T11:29:51.423Z,60.90
2023-02-16T11:33:24.923Z,61.00
2023-02-16T11:36:49.403Z,58.70
2023-02-16T11:40:24.802Z,59.30
2023-02-16T11:43:49.708Z,57.50
2023-02-16T11:47:25.831Z,58.40
2023-02-16T11:50:59.451Z,57.10
2023-02-16T11:54:24.543Z,57.00
2023-02-16T11:57:48.985Z,57.60
2023-02-16T12:01:28.239Z,57.10
2023-02-16T12:05:22.156Z,55.30
2023-02-16T12:09:04.103Z,54.50
2023-02-16T12:12:42.999Z,54.10
2023-02-16T12:16:25.832Z,54.10
2023-02-16T12:20:01.662Z,53.70
2023-02-16T12:23:39.726Z,53.50
2023-02-16T12:27:07.051Z,52.70
2023-02-16T12:30:47.078Z,52.60
2023-02-16T12:34:31.180Z,51.50
2023-02-16T12:38:07.171Z,51.10
2023-02-16T12:41:52.013Z,51.40
2023-02-16T12:45:21.478Z,51.10
2023-02-16T12:48:53.836Z,50.90
2023-02-16T12:52:37.339Z,50.80
2023-02-16T12:56:04.782Z,50.10
2023-02-16T12:59:40.082Z,50.30
2023-02-16T13:03:27.266Z,50.10
2023-02-16T13:07:00.356Z,50.00
2023-02-16T13:10:34.084Z,49.80
2023-02-16T13:14:04.549Z,49.80
2023-02-16T13:17:36.655Z,49.80
2023-02-16T13:21:10.961Z,49.60
2023-02-16T13:24:55.254Z,49.70
2023-02-16T13:29:03.149Z,49.50
2023-02-16T13:33:04.062Z,48.60
2023-02-16T13:36:55.041Z,48.80
2023-02-16T13:40:48.807Z,49.50
2023-02-16T13:44:20.063Z,49.00
2023-02-16T13:47:44.236Z,49.30
2023-02-16T13:51:16.660Z,49.70
2023-02-16T13:54:43.682Z,49.60
2023-02-16T13:58:29.577Z,49.70
2023-02-16T14:01:55.868Z,49.70
2023-02-16T14:05:34.857Z,49.80
2023-02-16T14:09:48.910Z,49.70
2023-02-16T14:13:13.853Z,49.60
2023-02-16T14:16:37.614Z,50.00
2023-02-16T14:20:06.867Z,50.10
2023-02-16T14:23:35.510Z,50.00
2023-02-16T14:27:01.564Z,50.50
2023-02-16T14:30:33.770Z,50.20
2023-02-16T14:34:10.067Z,50.10
2023-02-16T14:37:41.316Z,50.00
2023-02-16T14:41:09.050Z,50.10
2023-02-16T14:44:59.349Z,50.20
2023-02-16T14:49:09.275Z,50.00
2023-02-16T14:53:18.229Z,49.80
2023-02-16T14:56:46.510Z,50.30
2023-02-16T15:00:24.211Z,50.00
2023-02-16T15:03:51.560Z,50.00
2023-02-16T15:07:18.285Z,50.10
2023-02-16T15:10:47.151Z,50.30
2023-02-16T15:14:15.678Z,50.30
2023-02-16T15:17:44.962Z,50.30
2023-02-16T15:21:20.636Z,50.50
2023-02-16T15:24:44.278Z,50.20
2023-02-16T15:28:23.007Z,50.00
2023-02-16T15:31:46.842Z,49.80
2023-02-16T15:35:13.728Z,50.00
2023-02-16T15:38:40.603Z,50.30
2023-02-16T15:42:21.678Z,50.10
2023-02-16T15:45:52.505Z,50.20
2023-02-16T15:49:22.868Z,50.00
2023-02-16T15:52:47.617Z,50.00
2023-02-16T15:56:32.379Z,50.00
2023-02-16T16:00:00.219Z,50.10
2023-02-16T16:03:25.347Z,50.30
2023-02-16T16:06:51.381Z,49.60
2023-02-16T16:10:19.810Z,50.40
2023-02-16T16:13:44.035Z,49.50
2023-02-16T16:17:13.803Z,49.30
2023-02-16T16:20:41.938Z,49.40
2023-02-16T16:24:10.336Z,49.20
2023-02-16T16:27:37.463Z,49.20
2023-02-16T16:31:09.660Z,49.30
2023-02-16T16:34:37.554Z,49.70
2023-02-16T16:38:03.492Z,49.90
2023-02-16T16:41:29.928Z,49.20
2023-02-16T16:45:06.984Z,49.30
2023-02-16T16:48:37.655Z,49.70
2023-02-16T16:52:01.241Z,49.70
2023-02-16T16:55:32.222Z,49.40
2023-02-16T16:58:58.669Z,49.30
2023-02-16T17:12:36.170Z,49.10
2023-02-16T17:16:05.431Z,49.00
2023-02-16T17:19:29.464Z,49.20
2023-02-16T17:22:53.208Z,49.20
2023-02-16T17:29:44.746Z,49.10
2023-02-16T17:43:24.367Z,49.40
2023-02-16T17:46:49.334Z,49.90
2023-02-16T17:50:15.564Z,49.90
2023-02-16T17:53:41.116Z,50.00
2023-02-16T17:57:05.431Z,49.90
2023-02-16T18:00:29.315Z,50.10
2023-02-16T18:03:54.181Z,50.00
2023-02-16T18:07:20.144Z,50.00
2023-02-16T18:10:47.385Z,50.20
2023-02-16T18:14:12.292Z,50.30
2023-02-16T18:17:35.729Z,50.10
2023-02-16T18:21:00.709Z,50.10
2023-02-16T18:24:24.377Z,50.30
2023-02-16T18:27:48.046Z,50.40
2023-02-16T18:31:12.923Z,50.40
2023-02-16T18:34:37.532Z,51.00
2023-02-16T18:38:02.702Z,50.40
2023-02-16T18:41:26.278Z,50.40
2023-02-16T18:44:50.646Z,50.30
2023-02-16T18:48:14.819Z,50.40
2023-02-16T18:51:38.543Z,50.50
2023-02-16T18:55:04.157Z,50.40
2023-02-16T18:58:27.782Z,50.50
2023-02-16T19:01:57.073Z,50.50
2023-02-16T19:05:21.310Z,50.70
2023-02-16T19:08:44.921Z,50.70
2023-02-16T19:12:10.040Z,50.70
2023-02-16T19:15:33.608Z,50.80
2023-02-16T19:18:57.314Z,50.90
2023-02-16T19:22:21.513Z,50.90
2023-02-16T19:25:45.116Z,50.80
2023-02-16T19:29:10.239Z,50.90
2023-02-16T19:32:34.419Z,51.00
2023-02-16T19:36:04.492Z,51.20
2023-02-16T19:39:28.525Z,51.20
2023-02-16T19:42:52.997Z,51.10
2023-02-16T19:46:18.779Z,51.10
2023-02-16T19:49:42.678Z,51.10
2023-02-16T19:53:07.144Z,51.20
2023-02-16T19:56:31.652Z,51.30
2023-02-16T19:59:55.533Z,51.30
2023-02-16T20:03:20.872Z,51.40
2023-02-16T20:06:45.500Z,51.40
2023-02-16T20:10:10.190Z,51.40
2023-02-16T20:13:33.967Z,51.40
2023-02-16T20:16:59.255Z,51.40
2023-02-16T20:20:24.835Z,51.40
2023-02-16T20:23:49.998Z,51.40
2023-02-16T20:27:15.294Z,51.50
2023-02-16T20:30:39.350Z,51.50
2023-02-16T20:34:04.356Z,51.50
2023-02-16T20:37:30.349Z,52.30
2023-02-16T20:40:54.224Z,51.40
2023-02-16T20:44:18.439Z,51.50
2023-02-16T20:47:42.579Z,51.60
2023-02-16T20:51:08.806Z,51.70
2023-02-16T20:54:34.514Z,52.10
2023-02-16T20:57:58.422Z,52.10
2023-02-16T21:01:26.053Z,52.30
2023-02-16T21:04:49.936Z,52.40
2023-02-16T21:08:13.922Z,52.50
2023-02-16T21:11:40.066Z,52.60
2023-02-16T21:15:03.824Z,52.80
2023-02-16T21:18:27.878Z,52.60
2023-02-16T21:21:52.308Z,52.80
2023-02-16T21:25:15.971Z,52.80
2023-02-16T21:28:41.243Z,52.70
2023-02-16T21:32:05.778Z,52.80
2023-02-16T21:35:29.845Z,52.70
2023-02-16T21:38:53.453Z,52.70
2023-02-16T21:42:16.100Z,52.70
2023-02-16T21:45:40.970Z,52.60
2023-02-16T21:49:05.481Z,52.60
2023-02-16T21:52:29.404Z,52.60
2023-02-16T21:56:10.790Z,52.40
2023-02-16T21:59:35.056Z,52.50
2023-02-16T22:03:00.066Z,52.60
2023-02-16T22:06:25.495Z,53.00
2023-02-16T22:09:48.979Z,52.40
2023-02-16T22:13:12.758Z,52.20
2023-02-16T22:16:39.341Z,52.30
2023-02-16T22:20:05.150Z,52.40
2023-02-16T22:23:28.752Z,52.30
2023-02-16T22:26:52.654Z,52.10
2023-02-16T22:30:16.754Z,52.20
2023-02-16T22:33:40.276Z,52.10
2023-02-16T22:37:05.247Z,52.00
2023-02-16T22:40:28.673Z,52.20
2023-02-16T22:43:54.911Z,52.00
2023-02-16T22:47:18.360Z,52.00
2023-02-16T22:50:41.785Z,51.90
2023-02-16T22:54:08.925Z,51.80
2023-02-16T22:57:36.226Z,52.00
2023-02-16T23:01:00.747Z,51.80
2023-02-16T23:04:24.372Z,51.80
2023-02-16T23:07:47.928Z,52.00
2023-02-16T23:11:12.915Z,51.80
2023-02-16T23:14:38.946Z,51.90
2023-02-16T23:18:02.698Z,51.90
2023-02-16T23:21:30.275Z,51.90
2023-02-16T23:25:08.189Z,52.00
2023-02-16T23:28:33.100Z,51.30
2023-02-16T23:31:56.687Z,51.80
2023-02-16T23:35:20.820Z,51.60
2023-02-16T23:38:44.426Z,51.70
2023-02-16T23:42:07.929Z,51.70
2023-02-16T23:45:32.795Z,51.50
2023-02-16T23:48:56.440Z,51.60
2023-02-16T23:52:20.132Z,52.20
2023-02-16T23:55:43.649Z,51.60
2023-02-16T23:59:07.162Z,51.40
